RELEVES METEO NEUVILLE
Donnes mto: Actuelle lundi, 30/11/2020 15:15
Date Horaire Temp. E. Hum. E. P.atmo. Pluie Vent Direction Direction P. de rose Temp au vent Rafales
30/11/2020 15:15 2,2 C 97 % 1023,4 hPa 0,0 mm 5,8 km/h (2 Bft) O-SO 250 1,8 C 2,2 C 17,7 km/h (3 Bft)
30/11/2020 15:10 2,2 C 97 % 1023,4 hPa 0,0 mm 7,5 km/h (2 Bft) O-SO 242 1,8 C 1,1 C 16,1 km/h (3 Bft)
30/11/2020 15:05 2,1 C 97 % 1023,4 hPa 0,0 mm 6,4 km/h (2 Bft) S 186 1,7 C 2,1 C 14,5 km/h (3 Bft)
30/11/2020 15:00 2,1 C 97 % 1023,3 hPa 0,0 mm 9,2 km/h (2 Bft) S 183 1,7 C -0,5 C 19,3 km/h (3 Bft)
30/11/2020 14:55 2,0 C 97 % 1023,3 hPa 0,0 mm 8,9 km/h (2 Bft) S 175 1,6 C -0,3 C 22,5 km/h (4 Bft)
30/11/2020 14:50 1,9 C 97 % 1023,5 hPa 0,0 mm 8,2 km/h (2 Bft) SO 219 1,5 C 0,2 C 16,1 km/h (3 Bft)
30/11/2020 14:45 1,9 C 97 % 1023,5 hPa 0,0 mm 9,5 km/h (2 Bft) S-SO 206 1,5 C -1,0 C 20,9 km/h (4 Bft)
30/11/2020 14:40 1,9 C 97 % 1023,6 hPa 0,0 mm 10,3 km/h (2 Bft) S-SO 200 1,5 C -1,6 C 22,5 km/h (4 Bft)
30/11/2020 14:35 1,9 C 97 % 1023,8 hPa 0,0 mm 7,0 km/h (2 Bft) SO 227 1,5 C 1,3 C 19,3 km/h (3 Bft)
30/11/2020 14:30 1,9 C 97 % 1023,8 hPa 0,0 mm 6,1 km/h (2 Bft) S 180 1,5 C 1,9 C 14,5 km/h (3 Bft)
30/11/2020 14:25 1,8 C 97 % 1024,0 hPa 0,0 mm 10,4 km/h (2 Bft) S 191 1,4 C -1,8 C 20,9 km/h (4 Bft)
30/11/2020 14:20 1,9 C 97 % 1023,9 hPa 0,0 mm 11,9 km/h (2 Bft) O 261 1,5 C -2,7 C 20,9 km/h (4 Bft)
30/11/2020 14:15 1,9 C 97 % 1024,0 hPa 0,0 mm 6,6 km/h (2 Bft) S-SO 211 1,5 C 1,7 C 17,7 km/h (3 Bft)
30/11/2020 14:10 1,9 C 97 % 1024,1 hPa 0,0 mm 8,3 km/h (2 Bft) SO 228 1,5 C 0,1 C 17,7 km/h (3 Bft)
30/11/2020 14:05 1,9 C 97 % 1024,3 hPa 0,0 mm 7,9 km/h (2 Bft) SO 227 1,5 C 0,4 C 16,1 km/h (3 Bft)
30/11/2020 14:00 1,9 C 97 % 1024,3 hPa 0,0 mm 6,8 km/h (2 Bft) S-SO 204 1,5 C 1,5 C 20,9 km/h (4 Bft)
30/11/2020 13:55 1,9 C 97 % 1024,3 hPa 0,0 mm 6,7 km/h (2 Bft) S 184 1,5 C 1,6 C 20,9 km/h (4 Bft)
30/11/2020 13:50 2,0 C 96 % 1024,3 hPa 0,0 mm 8,9 km/h (2 Bft) S 186 1,4 C -0,3 C 22,5 km/h (4 Bft)
30/11/2020 13:45 2,1 C 96 % 1024,6 hPa 0,0 mm 5,9 km/h (2 Bft) S-SO 198 1,5 C 2,1 C 12,9 km/h (3 Bft)
30/11/2020 13:40 2,1 C 97 % 1024,9 hPa 0,0 mm 5,1 km/h (1 Bft) SO 220 1,7 C 2,1 C 14,5 km/h (3 Bft)
30/11/2020 13:35 2,1 C 97 % 1024,9 hPa 0,0 mm 3,7 km/h (1 Bft) S-SO 205 1,7 C 2,1 C 12,9 km/h (3 Bft)
_ Min-Heure 06:25 00:00 14:55 - 00:00 - - 06:30 14:20 00:00
Minimum _ 0,2 C 92 % 1023,3 hPa - 0,0 km/h (0 Bft) - - -0,6 C -2,7 C 0,0 km/h (0 Bft)
_ Max-Heure 15:10 11:30 06:35 00:00 14:20 - - 15:10 15:15 13:50
Maximum _ 2,2 C 97 % 1027,4 hPa 0,0 mm 11,9 km/h
O (2 Bft)
- - 1,8 C 2,2 C 22,5 km/h
S-SO (4 Bft)
Moyenne _ 1,0 C 95 % 1026,4 hPa #0,0 mm 2,6 km/h (1 Bft) S-SO - 0,2 C 0,8 C 8,2 km/h (2 Bft)
NEUVILLE ST REMY